Latest Weather Observations for Sheoaks

IDV60901

Issued at 6:21 am EST Saturday 25 June 2016 (issued every 10 minutes, with the page automatically refreshed every 10 minutes)

About weather observations | Map of Melbourne area stations | Latest observations for Melbourne area | Other Formats
Station Details ID: 087168 Name: SHEOAKS Lat: -37.91 Lon: 144.13 Height: 236.7 m
Data from the previous 72 hours. | See also: Recent months at Sheoaks
Date/Time
EST
Temp
°C
App
Temp
°C
Dew
Point
°C
Rel
Hum
%
Delta-T
°C
Wind Press
QNH
hPa
Press
MSL
hPa
Rain since
9am
mm
Dir  Spd
km/h
Gust
km/h
Spd
kts
Gust
kts
25/06:00am 2.7 -0.9 0.8 87 0.7 WNW 9 13 5 7 1020.7 1021.0 4.0
25/05:30am 3.6 -0.7 1.3 85 0.9 WNW 13 17 7 9 1020.3 1020.7 4.0
25/05:00am 2.9 -0.6 1.1 88 0.7 NW 9 13 5 7 1020.1 1020.5 4.0
25/04:30am 2.8 -0.7 1.0 88 0.7 NW 9 13 5 7 1019.9 1020.3 4.0
25/04:00am 3.0 -0.6 0.9 86 0.8 NW 9 15 5 8 1019.8 1020.2 4.0
25/03:30am 3.9 -0.3 1.4 84 1.0 WNW 13 19 7 10 1019.5 1019.9 4.0
25/03:00am 4.3 -0.3 1.7 83 1.0 WNW 15 19 8 10 1019.4 1019.8 4.0
25/02:30am 4.4 -0.2 1.6 82 1.1 WNW 15 22 8 12 1019.4 1019.8 4.0
25/02:00am 4.2 0.0 1.4 82 1.1 W 13 22 7 12 1018.9 1019.2 4.0
25/01:30am 4.3 -0.3 1.5 82 1.1 WNW 15 20 8 11 1018.6 1018.9 4.0
25/01:00am 4.2 -0.5 1.2 81 1.2 WNW 15 20 8 11 1018.5 1018.8 4.0
25/12:30am 4.1 -0.6 1.1 81 1.2 WNW 15 20 8 11 1018.2 1018.5 4.0
25/12:00am 4.2 -0.5 1.1 80 1.2 W 15 22 8 12 1018.0 1018.3 4.0
 
Date/Time
EST
Temp
°C
App
Temp
°C
Dew
Point
°C
Rel
Hum
%
Delta-T
°C
Wind Press
QNH
hPa
Press
MSL
hPa
Rain since
9am
mm
Dir  Spd
km/h
Gust
km/h
Spd
kts
Gust
kts
24/11:30pm 4.5 -0.9 1.4 80 1.2 W 19 26 10 14 1017.6 1017.9 4.0
24/11:00pm 4.2 -0.4 1.4 82 1.1 WNW 15 22 8 12 1017.3 1017.6 4.0
24/10:30pm 4.0 -0.7 1.2 82 1.1 WNW 15 22 8 12 1017.1 1017.4 4.0
24/10:00pm 3.8 -0.1 1.2 83 1.0 WNW 11 17 6 9 1016.8 1017.1 4.0
24/09:30pm 4.3 0.0 1.3 81 1.2 W 13 20 7 11 1016.4 1016.7 4.0
24/09:00pm 4.2 -0.8 1.4 82 1.1 WNW 17 24 9 13 1016.0 1016.3 4.0
24/08:30pm 4.0 -0.2 1.4 83 1.0 WNW 13 19 7 10 1015.4 1015.7 4.0
24/08:00pm 3.9 -0.7 1.3 83 1.0 W 15 22 8 12 1015.0 1015.3 4.0
24/07:30pm 4.4 -0.6 1.3 80 1.2 WSW 17 32 9 17 1014.5 1014.8 4.0
24/07:00pm 4.2 -0.4 1.6 83 1.0 W 15 22 8 12 1013.8 1014.1 4.0
24/06:30pm 4.0 -0.5 1.9 86 0.8 WNW 15 24 8 13 1013.1 1013.4 4.0
24/06:00pm 4.0 -1.4 1.5 84 1.0 W 19 28 10 15 1012.6 1012.9 4.0
24/05:30pm 3.7 -0.2 1.4 85 0.9 W 11 17 6 9 1012.3 1012.6 4.0
24/05:00pm 3.6 -1.4 1.2 84 0.9 W 17 26 9 14 1011.8 1012.0 3.8
24/04:30pm 4.2 -1.2 1.4 82 1.1 W 19 26 10 14 1010.9 1011.2 3.8
24/04:00pm 3.8 -3.2 1.7 86 0.8 W 28 39 15 21 1010.0 1010.3 3.8
24/03:30pm 3.8 -1.6 2.3 90 0.6 W 20 28 11 15 1009.6 1009.9 3.8
24/03:00pm 3.4 -1.9 2.1 91 0.5 WSW 19 37 10 20 1009.5 1009.8 3.6
24/02:42pm 3.4 -4.0 1.8 89 0.6 W 30 48 16 26 1009.0 1009.3 2.6
24/02:30pm 4.8 -2.5 2.3 84 1.0 W 30 46 16 25 1008.5 1008.7 1.8
24/02:28pm 5.0 -1.9 2.4 83 1.1 W 28 46 15 25 1008.4 1008.6 1.6
24/02:00pm 5.3 -1.7 2.1 80 1.3 W 28 39 15 21 1007.4 1007.6 1.6
24/01:30pm 4.7 0.0 3.2 90 0.6 W 17 30 9 16 1007.2 1007.4 1.6
24/01:00pm 3.7 -4.7 1.7 87 0.8 W 35 54 19 29 1007.4 1007.6 0.4
24/12:35pm 6.2 -0.8 1.7 73 1.8 W 28 46 15 25 1006.2 1006.5 0.0
24/12:30pm 6.3 -0.6 2.4 76 1.6 W 28 43 15 23 1006.1 1006.4 0.0
24/12:00pm 6.2 -0.4 2.1 75 1.7 WNW 26 39 14 21 1005.7 1006.0 0.0
24/11:30am 5.7 -0.8 2.4 79 1.4 W 26 39 14 21 1005.8 1006.1 0.0
24/11:00am 5.3 -0.5 2.3 81 1.2 W 22 32 12 17 1005.4 1005.7 0.0
24/10:30am 4.7 -1.5 2.4 85 0.9 W 24 37 13 20 1004.9 1005.1 0.0
24/10:00am 4.6 -2.4 2.1 84 1.0 W 28 43 15 23 1004.5 1004.7 0.0
24/09:39am 5.0 -2.0 2.0 81 1.2 WNW 28 48 15 26 1003.6 1003.8 0.0
24/09:30am 5.4 -0.8 2.4 81 1.2 W 24 37 13 20 1003.4 1003.6 0.0
24/09:00am 4.7 -0.6 2.1 83 1.1 WNW 19 32 10 17 1002.6 1002.9 6.4
24/08:30am 4.7 -0.7 2.2 84 1.0 WNW 20 30 11 16 1002.2 1002.5 6.4
24/08:00am 4.7 -1.5 2.4 85 0.9 WNW 24 39 13 21 1001.9 1002.2 6.2
24/07:30am 5.2 -1.0 2.0 80 1.3 WNW 24 37 13 20 1001.6 1001.9 6.2
24/07:00am 5.3 0.0 1.8 78 1.4 WNW 19 32 10 17 1001.0 1001.2 6.2
24/06:30am 5.3 0.8 2.1 80 1.3 WNW 15 30 8 16 1000.5 1000.7 6.2
24/06:00am 5.2 0.7 2.2 81 1.2 NW 15 24 8 13 1000.1 1000.3 6.2
24/05:30am 5.3 0.8 2.3 81 1.2 NW 15 24 8 13 999.5 999.7 6.2
24/05:00am 5.5 1.4 2.5 81 1.3 NW 13 20 7 11 999.0 999.2 6.2
24/04:30am 5.6 1.2 2.6 81 1.2 NNW 15 22 8 12 998.7 998.9 6.2
24/04:00am 6.0 0.9 3.2 82 1.2 NW 19 37 10 20 999.1 999.3 6.2
24/03:30am 6.3 1.9 2.9 79 1.4 NW 15 24 8 13 999.2 999.4 6.2
24/03:00am 5.8 1.8 2.6 80 1.3 NNW 13 20 7 11 999.0 999.2 6.2
24/02:30am 5.8 1.4 2.6 80 1.3 NNW 15 22 8 12 998.7 998.9 6.2
24/02:00am 5.7 1.3 2.5 80 1.3 NNW 15 22 8 12 998.6 998.8 6.2
24/01:30am 5.6 1.2 2.9 83 1.1 NW 15 22 8 12 998.8 999.0 6.2
24/01:00am 5.3 1.3 3.0 85 1.0 NNW 13 20 7 11 999.0 999.2 6.2
24/12:30am 5.4 1.4 3.1 85 1.0 NW 13 20 7 11 999.1 999.3 6.2
24/12:00am 5.6 1.7 3.4 86 0.9 NNW 13 20 7 11 999.3 999.5 6.2
 
Date/Time
EST
Temp
°C
App
Temp
°C
Dew
Point
°C
Rel
Hum
%
Delta-T
°C
Wind Press
QNH
hPa
Press
MSL
hPa
Rain since
9am
mm
Dir  Spd
km/h
Gust
km/h
Spd
kts
Gust
kts
23/11:30pm 5.6 2.1 3.6 87 0.9 NW 11 17 6 9 999.1 999.3 6.2
23/11:00pm 6.0 2.2 3.8 86 1.0 NW 13 17 7 9 998.8 999.0 6.2
23/10:30pm 6.4 3.4 4.1 85 1.0 NW 9 20 5 11 999.0 999.2 6.2
23/10:00pm 6.7 3.3 4.2 84 1.1 WNW 11 17 6 9 999.2 999.4 6.2
23/09:30pm 6.8 3.0 4.1 83 1.2 WNW 13 20 7 11 999.0 999.2 6.2
23/09:00pm 6.9 3.2 4.2 83 1.2 WNW 13 19 7 10 999.1 999.3 6.0
23/08:30pm 7.1 2.6 4.1 81 1.3 WNW 17 26 9 14 999.0 999.2 6.0
23/08:00pm 7.0 2.9 4.3 83 1.2 WNW 15 20 8 11 998.6 998.8 6.0
23/07:30pm 6.7 3.0 4.5 86 1.0 NW 13 20 7 11 997.9 998.1 6.0
23/07:00pm 6.8 2.8 4.8 87 0.9 NW 15 24 8 13 997.6 997.8 6.0
23/06:30pm 6.7 3.1 5.2 90 0.7 NW 13 24 7 13 997.9 998.1 6.0
23/06:00pm 6.7 2.4 5.3 91 0.6 W 17 22 9 12 998.3 998.5 6.0
23/05:30pm 6.9 2.7 5.7 92 0.5 W 17 32 9 17 997.8 998.0 5.8
23/05:00pm 7.4 1.4 5.5 88 0.9 W 26 39 14 21 997.8 998.0 5.4
23/04:30pm 7.9 3.3 5.7 86 1.0 NW 19 32 10 17 996.8 997.0 5.0
23/04:00pm 6.3 -0.2 4.5 88 0.8 WNW 28 46 15 25 996.7 996.9 3.8
23/03:47pm 9.3 2.2 6.4 82 1.4 WNW 33 59 18 32 996.9 997.1 0.4
23/03:46pm 10.4 3.6 7.6 83 1.4 NW 33 50 18 27 996.9 997.1 0.2
23/03:30pm 10.6 3.9 7.5 81 1.5 NW 32 54 17 29 994.9 995.1 0.0
23/03:00pm 11.6 3.4 6.5 71 2.5 NNW 39 63 21 34 993.9 994.0 0.0
23/02:30pm 11.9 3.3 6.4 69 2.6 NNW 41 72 22 39 994.5 994.6 0.0
23/02:00pm 12.0 3.9 6.9 71 2.5 NNW 39 65 21 35 994.3 994.4 0.0
23/01:30pm 12.2 2.7 6.5 68 2.7 NNW 46 78 25 42 995.0 995.2 0.0
23/01:00pm 12.4 4.3 7.1 70 2.6 NNW 39 65 21 35 996.0 996.2 0.0
23/12:30pm 12.1 2.2 6.4 68 2.7 NNW 48 82 26 44 996.3 996.5 0.0
23/12:26pm 12.3 3.1 6.4 67 2.8 NNW 44 82 24 44 996.4 996.6 0.0
23/12:00pm 12.2 5.2 6.9 70 2.6 NNW 33 56 18 30 997.6 997.8 0.0
23/11:30am 11.8 4.0 6.5 70 2.5 NNW 37 59 20 32 998.3 998.5 0.0
23/11:00am 11.8 3.5 6.3 69 2.6 NNW 39 61 21 33 998.7 998.9 0.0
23/10:31am 11.5 4.3 6.0 69 2.6 NNW 33 56 18 30 999.2 999.4 0.0
23/10:30am 11.5 4.5 6.2 70 2.5 NNW 32 44 17 24 999.4 999.6 0.0
23/10:01am 11.2 4.0 6.1 71 2.4 NNW 33 54 18 29 999.6 999.8 0.0
23/10:00am 11.2 4.1 6.3 72 2.3 NNW 33 52 18 28 999.6 999.8 0.0
23/09:37am 11.0 4.0 6.2 72 2.3 NNW 32 52 17 28 999.9 1000.1 0.0
23/09:30am 10.9 3.7 6.1 72 2.3 NNW 33 52 18 28 1000.1 1000.3 0.0
23/09:00am 10.6 3.1 6.2 74 2.1 NNW 35 57 19 31 1000.3 1000.5 0.0
23/08:30am 10.3 3.1 6.1 75 2.0 NNW 33 54 18 29 1000.3 1000.5 0.0
23/08:00am 10.1 2.9 6.1 76 1.9 NNW 33 54 18 29 1000.8 1001.0 0.0
23/07:37am 10.0 3.0 6.2 77 1.8 NNW 32 52 17 28 1000.9 1001.1 0.0
23/07:30am 10.0 2.9 6.2 77 1.8 NNW 33 50 18 27 1000.9 1001.1 0.0
23/07:00am 9.7 3.4 5.9 77 1.8 NNW 28 43 15 23 1001.1 1001.3 0.0
23/06:30am 9.7 3.0 5.7 76 1.9 NNW 30 46 16 25 1001.0 1001.2 0.0
23/06:00am 9.6 2.9 5.8 77 1.8 NNW 30 46 16 25 1000.9 1001.1 0.0
23/05:43am 9.5 3.2 5.9 78 1.7 NNW 28 46 15 25 1001.1 1001.3 0.0
23/05:30am 9.3 3.4 5.9 79 1.6 NNW 26 43 14 23 1001.4 1001.6 0.0
23/05:15am 9.4 3.1 5.8 78 1.7 NNW 28 48 15 26 1001.4 1001.6 0.0
23/05:00am 9.4 3.9 5.8 78 1.7 NNW 24 44 13 24 1001.6 1001.9 0.0
23/04:30am 9.6 4.4 5.6 76 1.8 NNW 22 33 12 18 1002.2 1002.5 0.0
23/04:00am 9.8 4.6 5.6 75 2.0 NNW 22 33 12 18 1002.5 1002.8 0.0
23/03:30am 9.8 3.9 5.8 76 1.9 NNW 26 43 14 23 1003.0 1003.2 0.0
23/03:00am 10.0 4.5 5.8 75 2.0 NNW 24 37 13 20 1003.5 1003.7 0.0
23/02:30am 10.0 4.5 5.8 75 2.0 NNW 24 41 13 22 1003.6 1003.8 0.0
23/02:00am 10.1 4.6 5.9 75 2.0 NNW 24 39 13 21 1003.8 1004.0 0.0
23/01:30am 10.0 4.1 6.0 76 1.9 NNW 26 43 14 23 1004.1 1004.3 0.0
23/01:00am 10.1 4.2 5.9 75 2.0 NNW 26 39 14 21 1004.4 1004.6 0.0
23/12:30am 10.1 4.6 5.9 75 2.0 NNW 24 43 13 23 1004.8 1005.0 0.0
23/12:00am 10.5 4.6 5.7 72 2.2 NNW 26 39 14 21 1005.0 1005.2 0.0
 
Date/Time
EST
Temp
°C
App
Temp
°C
Dew
Point
°C
Rel
Hum
%
Delta-T
°C
Wind Press
QNH
hPa
Press
MSL
hPa
Rain since
9am
mm
Dir  Spd
km/h
Gust
km/h
Spd
kts
Gust
kts
22/11:30pm 10.5 5.8 5.9 73 2.2 NW 20 37 11 20 1005.2 1005.5 0.0
22/11:00pm 10.5 5.9 6.3 75 2.0 NNW 20 33 11 18 1005.2 1005.5 0.0
22/10:30pm 10.6 6.0 6.7 77 1.9 NNW 20 37 11 20 1005.3 1005.6 0.0
22/10:00pm 10.5 6.0 7.0 79 1.7 NNW 20 32 11 17 1005.5 1005.8 0.0
22/09:30pm 10.7 5.8 7.0 78 1.8 NNW 22 33 12 18 1005.5 1005.8 0.0
22/09:00pm 10.7 6.2 6.8 77 1.9 NNW 20 33 11 18 1005.6 1005.9 0.0
22/08:30pm 10.5 5.9 6.5 76 1.9 NNW 20 32 11 17 1005.8 1006.1 0.0
22/08:00pm 10.7 6.3 6.6 76 2.0 NW 19 26 10 14 1005.8 1006.1 0.0
22/07:30pm 10.7 6.3 6.6 76 2.0 NW 19 30 10 16 1005.6 1005.9 0.0
22/07:00pm 10.9 6.4 7.0 77 1.9 NW 20 33 11 18 1005.6 1005.9 0.0
22/06:30pm 10.8 6.8 6.7 76 2.0 NW 17 32 9 17 1005.4 1005.7 0.0
22/06:00pm 10.7 6.7 6.5 75 2.0 NW 17 28 9 15 1005.3 1005.6 0.0
22/05:30pm 11.1 6.5 6.3 72 2.3 NW 20 35 11 19 1004.9 1005.1 0.0
22/05:00pm 11.2 7.5 6.5 73 2.3 NW 15 24 8 13 1004.7 1004.9 0.0
22/04:30pm 11.1 8.4 7.2 77 1.9 NW 11 20 6 11 1004.8 1005.0 0.0
22/04:00pm 11.0 7.9 7.3 78 1.8 NW 13 22 7 12 1004.7 1004.9 0.0
22/03:30pm 11.6 7.0 6.5 71 2.4 WNW 20 35 11 19 1004.4 1004.6 0.0
22/03:00pm 12.2 7.1 6.0 66 3.0 WNW 22 37 12 20 1004.0 1004.2 0.0
22/02:30pm 12.1 6.7 6.4 68 2.7 WNW 24 35 13 19 1004.0 1004.2 0.0
22/02:00pm 11.9 5.7 6.2 68 2.7 WNW 28 50 15 27 1003.8 1004.0 0.0
22/01:59pm 12.0 5.8 6.1 67 2.8 WNW 28 50 15 27 1003.8 1004.0 0.0
22/01:30pm 11.8 5.3 6.3 69 2.6 WNW 30 44 16 24 1003.6 1003.8 0.0
22/01:06pm 12.2 5.0 6.0 66 3.0 W 33 54 18 29 1003.5 1003.7 0.0
22/01:00pm 12.3 4.7 5.9 65 3.1 W 35 54 19 29 1003.4 1003.6 0.0
22/12:36pm 12.6 5.5 6.2 65 3.1 WNW 33 54 18 29 1003.5 1003.7 0.0
22/12:30pm 12.3 4.3 5.9 65 3.0 WNW 37 56 20 30 1003.3 1003.5 0.0
22/12:00pm 12.2 5.1 6.3 67 2.8 WNW 33 57 18 31 1003.8 1004.0 0.0
22/11:30am 11.8 4.3 6.3 69 2.6 WNW 35 56 19 30 1003.9 1004.1 0.0
22/11:00am 11.5 4.5 5.8 68 2.7 WNW 32 52 17 28 1003.7 1003.9 0.0
22/10:57am 11.4 4.3 5.7 68 2.7 WNW 32 52 17 28 1003.7 1003.9 0.0
22/10:30am 11.2 4.5 5.7 69 2.6 WNW 30 46 16 25 1003.6 1003.8 0.0
22/10:14am 10.9 3.6 5.4 69 2.6 WNW 33 52 18 28 1003.4 1003.6 0.0
22/10:00am 10.7 4.0 5.7 71 2.3 WNW 30 46 16 25 1003.3 1003.5 0.0
22/09:30am 10.2 3.8 5.2 71 2.3 WNW 28 43 15 23 1003.0 1003.2 0.0
22/09:00am 9.6 2.4 4.8 72 2.2 WNW 32 46 17 25 1002.4 1002.7 0.2
22/08:30am 9.3 2.0 4.7 73 2.1 WNW 32 50 17 27 1002.0 1002.3 0.2
22/08:24am 9.2 2.7 4.6 73 2.1 WNW 28 48 15 26 1002.0 1002.3 0.2
22/08:00am 9.0 2.9 4.6 74 2.0 WNW 26 43 14 23 1001.5 1001.7 0.2
22/07:30am 8.9 2.5 5.1 77 1.7 WNW 28 46 15 25 1001.2 1001.4 0.2
22/07:26am 8.9 2.5 5.1 77 1.7 WNW 28 46 15 25 1001.1 1001.3 0.2
22/07:00am 9.0 2.6 5.2 77 1.7 WNW 28 46 15 25 1000.7 1000.9 0.2
22/06:30am 8.8 2.8 5.4 79 1.6 WNW 26 39 14 21 1000.2 1000.4 0.2

Latest Capital City Observations: Canberra | Sydney | Melbourne | Brisbane | Adelaide | Perth | Hobart | Darwin

Other Formats:

Comma delimited format used in spreadsheet applications
http://www.bom.gov.au/fwo/IDV60901/IDV60901.94863.axf

JavaScript Object Notation format (JSON) in row-major order
http://www.bom.gov.au/fwo/IDV60901/IDV60901.94863.json